createdAt,value
2023-04-10T00:00:03.207Z,7.61
2023-04-10T00:01:03.414Z,7.61
2023-04-10T00:02:03.657Z,7.55
2023-04-10T00:03:04.309Z,7.51
2023-04-10T00:04:04.332Z,7.48
2023-04-10T00:05:04.489Z,7.44
2023-04-10T00:06:04.699Z,7.43
2023-04-10T00:07:04.860Z,7.39
2023-04-10T00:08:05.180Z,7.39
2023-04-10T00:09:05.388Z,7.37
2023-04-10T00:10:05.709Z,7.37
2023-04-10T00:11:05.893Z,7.33
2023-04-10T00:12:06.218Z,7.31
2023-04-10T00:13:06.401Z,7.31
2023-04-10T00:14:06.721Z,7.29
2023-04-10T00:15:06.969Z,7.29
2023-04-10T00:16:07.184Z,7.32
2023-04-10T00:17:07.370Z,7.37
2023-04-10T00:18:07.729Z,7.40
2023-04-10T00:19:07.939Z,7.43
2023-04-10T00:20:08.284Z,7.43
2023-04-10T00:21:08.467Z,7.44
2023-04-10T00:22:08.792Z,7.41
2023-04-10T00:23:09.106Z,7.40
2023-04-10T00:24:09.309Z,7.41
2023-04-10T00:25:09.571Z,7.41
2023-04-10T00:26:09.751Z,7.41
2023-04-10T00:27:09.957Z,7.40
2023-04-10T00:28:10.283Z,7.39
2023-04-10T00:29:10.487Z,7.37
2023-04-10T00:30:10.828Z,7.37
2023-04-10T00:31:11.006Z,7.33
2023-04-10T00:32:11.372Z,7.37
2023-04-10T00:33:11.533Z,7.41
2023-04-10T00:34:11.855Z,7.44
2023-04-10T00:35:12.101Z,7.44
2023-04-10T00:36:12.414Z,7.44
2023-04-10T00:37:12.601Z,7.43
2023-04-10T00:38:12.918Z,7.43
2023-04-10T00:39:13.170Z,7.46
2023-04-10T00:40:13.510Z,7.50
2023-04-10T00:41:13.724Z,7.50
2023-04-10T00:42:13.930Z,7.48
2023-04-10T00:43:14.131Z,7.50
2023-04-10T00:44:14.455Z,7.50
2023-04-10T00:45:14.689Z,7.51
2023-04-10T00:46:15.076Z,7.50
2023-04-10T00:47:15.261Z,7.53
2023-04-10T00:48:15.602Z,7.55
2023-04-10T00:49:15.801Z,7.51
2023-04-10T00:50:16.120Z,7.56
2023-04-10T00:51:16.298Z,7.61
2023-04-10T00:52:16.613Z,7.59
2023-04-10T00:53:16.815Z,7.58
2023-04-10T00:54:17.185Z,7.58
2023-04-10T00:55:17.379Z,7.58
2023-04-10T00:56:17.699Z,7.55
2023-04-10T00:57:17.906Z,7.48
2023-04-10T00:58:18.127Z,7.44
2023-04-10T00:59:18.328Z,7.43
2023-04-10T01:00:18.696Z,7.44
2023-04-10T01:01:19.052Z,7.40
2023-04-10T01:02:19.271Z,7.39
2023-04-10T01:03:19.767Z,7.39
2023-04-10T01:04:19.874Z,7.37
2023-04-10T01:05:19.983Z,7.33
2023-04-10T01:06:20.305Z,7.33
2023-04-10T01:07:20.511Z,7.33
2023-04-10T01:08:20.836Z,7.33
2023-04-10T01:09:21.037Z,7.32
2023-04-10T01:10:21.365Z,7.29
2023-04-10T01:11:21.572Z,7.31
2023-04-10T01:12:21.913Z,7.29
2023-04-10T01:13:22.113Z,7.28
2023-04-10T01:14:22.436Z,7.29
2023-04-10T01:15:22.628Z,7.31
2023-04-10T01:16:23.018Z,7.31
2023-04-10T01:17:23.258Z,7.29
2023-04-10T01:18:23.535Z,7.26
2023-04-10T01:19:23.740Z,7.23
2023-04-10T01:20:24.061Z,7.22
2023-04-10T01:21:24.363Z,7.26
2023-04-10T01:22:24.695Z,7.28
2023-04-10T01:23:24.889Z,7.32
2023-04-10T01:24:25.232Z,7.31
2023-04-10T01:25:25.439Z,7.31
2023-04-10T01:26:25.765Z,7.26
2023-04-10T01:27:25.993Z,7.23
2023-04-10T01:28:26.226Z,7.22
2023-04-10T01:29:26.420Z,7.19
2023-04-10T01:30:26.756Z,7.19
2023-04-10T01:31:27.009Z,7.19
2023-04-10T01:32:27.215Z,7.14
2023-04-10T01:33:27.422Z,7.18
2023-04-10T01:34:27.802Z,7.19
2023-04-10T01:35:27.975Z,7.15
2023-04-10T01:36:28.179Z,7.11
2023-04-10T01:37:28.374Z,7.10
2023-04-10T01:38:28.697Z,7.10
2023-04-10T01:39:28.928Z,7.11
2023-04-10T01:40:29.150Z,7.11
2023-04-10T01:41:29.381Z,7.08
2023-04-10T01:42:29.630Z,7.03
2023-04-10T01:43:29.864Z,7.04
2023-04-10T01:44:30.115Z,7.03
2023-04-10T01:45:30.336Z,7.00
2023-04-10T01:46:30.621Z,7.00
2023-04-10T01:47:30.917Z,6.97
2023-04-10T01:48:31.141Z,6.97
2023-04-10T01:49:31.379Z,6.97
2023-04-10T01:50:31.615Z,7.00
2023-04-10T01:51:31.824Z,6.96
2023-04-10T01:52:32.161Z,6.95
2023-04-10T01:53:32.378Z,6.93
2023-04-10T01:54:32.713Z,6.93
2023-04-10T01:55:32.904Z,6.95
2023-04-10T01:56:33.237Z,7.00
2023-04-10T01:57:33.450Z,7.01
2023-04-10T01:58:33.675Z,7.03
2023-04-10T01:59:33.905Z,6.97
2023-04-10T02:00:34.108Z,6.95
2023-04-10T02:01:34.382Z,6.95
2023-04-10T02:02:34.841Z,6.97
2023-04-10T02:03:35.012Z,6.93
2023-04-10T02:04:35.258Z,6.90
2023-04-10T02:05:35.472Z,6.92
2023-04-10T02:06:35.684Z,6.90
2023-04-10T02:07:36.007Z,6.86
2023-04-10T02:08:36.336Z,6.89
2023-04-10T02:09:36.538Z,6.83
2023-04-10T02:10:36.860Z,6.83
2023-04-10T02:11:37.075Z,6.83
2023-04-10T02:12:37.282Z,6.82
2023-04-10T02:13:37.596Z,6.82
2023-04-10T02:14:37.914Z,6.80
2023-04-10T02:15:38.199Z,6.78
2023-04-10T02:16:38.473Z,6.80
2023-04-10T02:17:38.740Z,6.82
2023-04-10T02:18:38.902Z,6.80
2023-04-10T02:19:39.215Z,6.78
2023-04-10T02:20:39.572Z,6.77
2023-04-10T02:21:39.753Z,6.74
2023-04-10T02:22:39.960Z,6.77
2023-04-10T02:23:40.291Z,6.80
2023-04-10T02:24:40.604Z,6.80
2023-04-10T02:25:40.818Z,6.78
2023-04-10T02:26:41.148Z,6.74
2023-04-10T02:27:41.361Z,6.71
2023-04-10T02:28:41.694Z,6.70
2023-04-10T02:29:41.910Z,6.68
2023-04-10T02:30:42.226Z,6.67
2023-04-10T02:31:42.483Z,6.70
2023-04-10T02:32:42.687Z,6.67
2023-04-10T02:33:42.880Z,6.64
2023-04-10T02:34:43.101Z,6.60
2023-04-10T02:35:43.359Z,6.59
2023-04-10T02:36:43.576Z,6.57
2023-04-10T02:37:43.792Z,6.56
2023-04-10T02:38:44.025Z,6.53
2023-04-10T02:39:44.243Z,6.57
2023-04-10T02:40:44.475Z,6.57
2023-04-10T02:41:44.715Z,6.60
2023-04-10T02:42:44.895Z,6.62
2023-04-10T02:43:45.217Z,6.62
2023-04-10T02:44:45.539Z,6.62
2023-04-10T02:45:45.859Z,6.57
2023-04-10T02:46:46.238Z,6.54
2023-04-10T02:47:46.445Z,6.50
2023-04-10T02:48:46.635Z,6.47
2023-04-10T02:49:46.835Z,6.49
2023-04-10T02:50:47.171Z,6.50
2023-04-10T02:51:47.422Z,6.47
2023-04-10T02:52:47.717Z,6.49
2023-04-10T02:53:47.936Z,6.47
2023-04-10T02:54:48.267Z,6.44
2023-04-10T02:55:48.487Z,6.39
2023-04-10T02:56:48.696Z,6.38
2023-04-10T02:57:49.025Z,6.38
2023-04-10T02:58:49.245Z,6.41
2023-04-10T02:59:49.469Z,6.49
2023-04-10T03:00:49.706Z,6.50
2023-04-10T03:01:49.977Z,6.53
2023-04-10T03:02:50.483Z,6.52
2023-04-10T03:03:50.579Z,6.52
2023-04-10T03:04:50.775Z,6.50
2023-04-10T03:05:51.008Z,6.50
2023-04-10T03:06:51.299Z,6.50
2023-04-10T03:07:51.502Z,6.47
2023-04-10T03:08:51.740Z,6.43
2023-04-10T03:09:51.958Z,6.44
2023-04-10T03:10:52.282Z,6.46
2023-04-10T03:11:52.531Z,6.46
2023-04-10T03:12:52.760Z,6.47
2023-04-10T03:13:53.161Z,6.47
2023-04-10T03:14:53.192Z,6.46
2023-04-10T03:15:53.463Z,6.47
2023-04-10T03:16:53.672Z,6.50
2023-04-10T03:17:53.929Z,6.52
2023-04-10T03:18:54.210Z,6.49
2023-04-10T03:19:54.421Z,6.44
2023-04-10T03:20:54.767Z,6.43
2023-04-10T03:21:54.975Z,6.39
2023-04-10T03:22:55.325Z,6.36
2023-04-10T03:23:55.754Z,6.38
2023-04-10T03:24:55.815Z,6.34
2023-04-10T03:25:56.050Z,6.31
2023-04-10T03:26:56.246Z,6.28
2023-04-10T03:27:56.469Z,6.26
2023-04-10T03:28:56.790Z,6.25
2023-04-10T03:29:57.005Z,6.19
2023-04-10T03:30:57.249Z,6.17
2023-04-10T03:31:57.662Z,6.15
2023-04-10T03:32:57.770Z,6.10
2023-04-10T03:33:58.437Z,6.06
2023-04-10T03:34:58.253Z,6.01
2023-04-10T03:35:58.519Z,5.97
2023-04-10T03:36:58.745Z,5.98
2023-04-10T03:37:58.981Z,5.97
2023-04-10T03:38:59.174Z,6.02
2023-04-10T03:39:59.500Z,6.05
2023-04-10T03:40:59.844Z,6.05
2023-04-10T03:42:00.060Z,6.05
2023-04-10T03:43:00.386Z,6.02
2023-04-10T03:44:00.598Z,6.05
2023-04-10T03:45:00.918Z,6.07
2023-04-10T03:46:01.159Z,6.09
2023-04-10T03:47:01.409Z,6.15
2023-04-10T03:48:01.677Z,6.16
2023-04-10T03:49:01.945Z,6.16
2023-04-10T03:50:02.244Z,6.12
2023-04-10T03:51:02.530Z,6.09
2023-04-10T03:52:02.724Z,6.06
2023-04-10T03:53:02.997Z,6.02
2023-04-10T03:54:03.307Z,6.01
2023-04-10T03:55:03.662Z,5.99
2023-04-10T03:56:03.908Z,5.98
2023-04-10T03:57:04.136Z,6.01
2023-04-10T03:58:04.359Z,5.99
2023-04-10T03:59:04.585Z,5.95
2023-04-10T04:00:04.814Z,5.94
2023-04-10T04:01:05.065Z,5.98
2023-04-10T04:02:05.394Z,6.02
2023-04-10T04:03:05.677Z,6.10
2023-04-10T04:04:05.881Z,6.13
2023-04-10T04:05:06.226Z,6.15
2023-04-10T04:06:06.381Z,6.15
2023-04-10T04:07:06.604Z,6.12
2023-04-10T04:08:06.860Z,6.12
2023-04-10T04:09:07.055Z,6.07
2023-04-10T04:10:07.275Z,6.01
2023-04-10T04:11:07.618Z,5.98
2023-04-10T04:12:07.833Z,5.99
2023-04-10T04:13:08.063Z,5.99
2023-04-10T04:14:08.265Z,5.95
2023-04-10T04:15:08.597Z,5.92
2023-04-10T04:16:08.889Z,5.90
2023-04-10T04:17:09.090Z,5.91
2023-04-10T04:18:09.284Z,5.94
2023-04-10T04:19:09.621Z,5.98
2023-04-10T04:20:09.832Z,5.98
2023-04-10T04:21:10.175Z,5.99
2023-04-10T04:22:10.377Z,5.98
2023-04-10T04:23:10.732Z,5.98
2023-04-10T04:24:10.932Z,5.99
2023-04-10T04:25:11.168Z,5.99
2023-04-10T04:26:11.506Z,6.01
2023-04-10T04:27:11.722Z,6.01
2023-04-10T04:28:12.065Z,6.05
2023-04-10T04:29:12.291Z,6.06
2023-04-10T04:30:12.517Z,6.05
2023-04-10T04:31:12.728Z,6.02
2023-04-10T04:32:13.060Z,6.02
2023-04-10T04:33:13.243Z,5.99
2023-04-10T04:34:13.432Z,5.99
2023-04-10T04:35:13.644Z,6.01
2023-04-10T04:36:13.979Z,5.99
2023-04-10T04:37:14.196Z,6.01
2023-04-10T04:38:14.538Z,6.02
2023-04-10T04:39:21.779Z,6.05
2023-04-10T04:40:17.817Z,6.07
2023-04-10T04:41:20.391Z,6.09
2023-04-10T04:42:15.664Z,6.07
2023-04-10T04:43:16.013Z,6.06
2023-04-10T04:44:16.326Z,6.07
2023-04-10T04:45:16.538Z,6.12
2023-04-10T04:46:16.798Z,6.10
2023-04-10T04:47:17.075Z,6.09
2023-04-10T04:48:17.234Z,6.07
2023-04-10T04:49:17.454Z,6.10
2023-04-10T04:50:17.777Z,6.12
2023-04-10T04:51:17.986Z,6.16
2023-04-10T04:52:18.327Z,6.17
2023-04-10T04:53:18.553Z,6.19
2023-04-10T04:54:18.783Z,6.25
2023-04-10T04:55:19.012Z,6.29
2023-04-10T04:56:19.221Z,6.31
2023-04-10T04:57:19.431Z,6.31
2023-04-10T04:58:19.772Z,6.32
2023-04-10T04:59:19.979Z,6.32
2023-04-10T05:00:20.328Z,6.31
2023-04-10T05:01:20.599Z,6.31
2023-04-10T05:02:20.889Z,6.34
2023-04-10T05:03:21.166Z,6.34
2023-04-10T05:04:21.412Z,6.36
2023-04-10T05:05:21.534Z,6.38
2023-04-10T05:06:21.789Z,6.44
2023-04-10T05:07:21.969Z,6.47
2023-04-10T05:08:22.305Z,6.49
2023-04-10T05:09:22.509Z,6.53
2023-04-10T05:10:22.840Z,6.60
2023-04-10T05:11:23.088Z,6.57
2023-04-10T05:12:23.320Z,6.57
2023-04-10T05:13:23.520Z,6.59
2023-04-10T05:14:23.831Z,6.64
2023-04-10T05:15:24.029Z,6.65
2023-04-10T05:16:24.359Z,6.68
2023-04-10T05:17:24.589Z,6.65
2023-04-10T05:18:24.812Z,6.70
2023-04-10T05:19:24.997Z,6.75
2023-04-10T05:20:25.321Z,6.77
2023-04-10T05:21:25.515Z,6.85
2023-04-10T05:22:25.836Z,6.83
2023-04-10T05:23:26.125Z,6.89
2023-04-10T05:24:26.480Z,6.89
2023-04-10T05:25:26.658Z,6.95
2023-04-10T05:26:26.970Z,7.00
2023-04-10T05:27:27.164Z,7.05
2023-04-10T05:28:27.468Z,7.05
2023-04-10T05:29:27.670Z,7.10
2023-04-10T05:30:27.987Z,7.18
2023-04-10T05:31:28.246Z,7.26
2023-04-10T05:32:28.472Z,7.29
2023-04-10T05:33:28.638Z,7.32
2023-04-10T05:34:28.946Z,7.39
2023-04-10T05:35:29.177Z,7.43
2023-04-10T05:36:29.393Z,7.44
2023-04-10T05:37:29.594Z,7.50
2023-04-10T05:38:29.818Z,7.58
2023-04-10T05:39:30.008Z,7.66
2023-04-10T05:40:30.342Z,7.74
2023-04-10T05:41:30.553Z,7.81
2023-04-10T05:42:30.761Z,7.87
2023-04-10T05:43:30.934Z,7.99
2023-04-10T05:44:31.263Z,8.13
2023-04-10T05:45:31.461Z,8.27
2023-04-10T05:46:31.838Z,8.28
2023-04-10T05:47:32.055Z,8.39
2023-04-10T05:48:32.217Z,8.57
2023-04-10T05:49:32.420Z,8.71
2023-04-10T05:50:32.622Z,8.79
2023-04-10T05:51:32.804Z,8.87
2023-04-10T05:52:33.107Z,9.00
2023-04-10T05:53:33.320Z,9.08
2023-04-10T05:54:33.522Z,9.26
2023-04-10T05:55:33.706Z,9.49
2023-04-10T05:56:34.034Z,9.63
2023-04-10T05:57:34.223Z,9.66
2023-04-10T05:58:34.383Z,9.64
2023-04-10T05:59:34.575Z,9.70
2023-04-10T06:00:34.768Z,9.84
2023-04-10T06:01:34.981Z,9.99
2023-04-10T06:02:35.367Z,10.09
2023-04-10T06:03:35.552Z,10.18
2023-04-10T06:04:35.864Z,10.24
2023-04-10T06:05:35.961Z,10.27
2023-04-10T06:06:36.165Z,10.28
2023-04-10T06:07:36.365Z,10.41
2023-04-10T06:08:36.580Z,10.39
2023-04-10T06:09:36.750Z,10.51
2023-04-10T06:10:37.037Z,10.76
2023-04-10T06:11:37.207Z,10.92
2023-04-10T06:12:37.521Z,11.01
2023-04-10T06:13:37.701Z,11.01
2023-04-10T06:14:37.985Z,11.08
2023-04-10T06:15:38.410Z,11.18
2023-04-10T06:16:38.408Z,11.48
2023-04-10T06:17:38.534Z,11.70
2023-04-10T06:18:38.812Z,11.74
2023-04-10T06:19:38.977Z,11.74
2023-04-10T06:20:39.250Z,11.68
2023-04-10T06:21:39.539Z,11.65
2023-04-10T06:22:39.792Z,11.96
2023-04-10T06:23:39.954Z,12.20
2023-04-10T06:24:40.224Z,12.07
2023-04-10T06:25:40.371Z,12.11
2023-04-10T06:26:40.562Z,12.37
2023-04-10T06:27:40.725Z,12.58
2023-04-10T06:28:40.888Z,12.63
2023-04-10T06:29:41.061Z,12.70
2023-04-10T06:30:41.368Z,12.63
2023-04-10T06:31:42.404Z,12.62
2023-04-10T06:32:41.687Z,12.28
2023-04-10T06:33:41.834Z,12.07
2023-04-10T06:34:42.016Z,12.11
2023-04-10T06:35:42.196Z,12.00
2023-04-10T06:36:42.369Z,12.05
2023-04-10T06:37:42.532Z,12.40
2023-04-10T06:38:42.747Z,12.45
2023-04-10T06:39:42.898Z,12.26
2023-04-10T06:40:43.058Z,12.25
2023-04-10T06:41:43.230Z,12.29
2023-04-10T06:42:43.387Z,11.89
2023-04-10T06:43:43.554Z,11.67
2023-04-10T06:44:43.806Z,11.67
2023-04-10T06:45:43.954Z,11.62
2023-04-10T06:46:44.157Z,11.67
2023-04-10T06:47:44.340Z,11.71
2023-04-10T06:48:44.448Z,11.88
2023-04-10T06:49:44.594Z,12.05
2023-04-10T06:50:44.746Z,12.25
2023-04-10T06:51:44.906Z,12.54
2023-04-10T06:52:45.073Z,12.65
2023-04-10T06:53:45.219Z,12.70
2023-04-10T06:54:45.499Z,12.84
2023-04-10T06:55:45.659Z,12.95
2023-04-10T06:56:45.916Z,13.21
2023-04-10T06:57:46.062Z,13.16
2023-04-10T06:58:46.219Z,13.37
2023-04-10T06:59:46.383Z,13.24
2023-04-10T07:00:46.574Z,12.69
2023-04-10T07:01:46.744Z,12.29
2023-04-10T07:02:46.881Z,12.02
2023-04-10T07:03:47.072Z,11.80
2023-04-10T07:04:47.198Z,11.93
2023-04-10T07:05:47.374Z,11.96
2023-04-10T07:06:47.623Z,12.08
2023-04-10T07:07:47.763Z,12.12
2023-04-10T07:08:48.030Z,12.05
2023-04-10T07:09:48.174Z,12.20
2023-04-10T07:10:48.461Z,12.29
2023-04-10T07:11:49.584Z,12.45
2023-04-10T07:12:48.851Z,12.51
2023-04-10T07:13:49.015Z,12.86
2023-04-10T07:14:49.163Z,13.20
2023-04-10T07:15:49.317Z,13.23
2023-04-10T07:16:49.698Z,13.20
2023-04-10T07:17:49.877Z,13.06
2023-04-10T07:18:50.004Z,13.40
2023-04-10T07:19:50.164Z,13.75
2023-04-10T07:20:50.326Z,14.13
2023-04-10T07:21:50.467Z,14.63
2023-04-10T07:22:50.630Z,14.67
2023-04-10T07:23:50.775Z,14.63
2023-04-10T07:24:51.032Z,14.56
2023-04-10T07:25:51.175Z,14.79
2023-04-10T07:26:51.447Z,14.90
2023-04-10T07:27:51.571Z,14.96
2023-04-10T07:28:52.029Z,14.79
2023-04-10T07:29:51.990Z,14.63
2023-04-10T07:30:52.129Z,14.49
2023-04-10T07:31:52.347Z,14.30
2023-04-10T07:32:52.658Z,14.59
2023-04-10T07:33:52.680Z,14.73
2023-04-10T07:34:52.848Z,14.43
2023-04-10T07:35:53.074Z,14.40
2023-04-10T07:36:53.160Z,14.53
2023-04-10T07:37:53.284Z,14.90
2023-04-10T07:38:53.776Z,15.35
2023-04-10T07:39:53.605Z,15.75
2023-04-10T07:40:53.857Z,16.17
2023-04-10T07:41:53.979Z,16.10
2023-04-10T07:42:54.122Z,15.63
2023-04-10T07:43:54.199Z,15.63
2023-04-10T07:44:54.433Z,15.54
2023-04-10T07:45:54.627Z,15.80
2023-04-10T07:46:54.740Z,15.91
2023-04-10T07:47:54.914Z,16.36
2023-04-10T07:48:55.442Z,16.66
2023-04-10T07:49:55.210Z,17.17
2023-04-10T07:50:56.291Z,17.04
2023-04-10T07:51:55.545Z,17.22
2023-04-10T07:52:55.655Z,17.28
2023-04-10T07:53:55.771Z,17.41
2023-04-10T07:54:55.914Z,17.78
2023-04-10T07:55:56.026Z,17.93
2023-04-10T07:56:56.142Z,18.39
2023-04-10T07:57:56.254Z,18.49
2023-04-10T07:58:56.523Z,18.53
2023-04-10T07:59:56.521Z,18.28
2023-04-10T08:00:56.723Z,18.03
2023-04-10T08:01:56.849Z,18.05
2023-04-10T08:02:57.190Z,17.88
2023-04-10T08:03:57.220Z,17.84
2023-04-10T08:04:57.372Z,17.76
2023-04-10T08:05:57.451Z,17.80
2023-04-10T08:06:57.562Z,17.59
2023-04-10T08:07:57.647Z,17.63
2023-04-10T08:08:57.754Z,17.78
2023-04-10T08:09:57.837Z,17.63
2023-04-10T08:10:58.038Z,17.69
2023-04-10T08:11:58.146Z,18.19
2023-04-10T08:12:58.290Z,18.05
2023-04-10T08:13:58.354Z,17.91
2023-04-10T08:14:58.438Z,17.57
2023-04-10T08:15:58.531Z,17.94
2023-04-10T08:16:58.671Z,18.23
2023-04-10T08:17:58.790Z,18.60
2023-04-10T08:18:58.844Z,18.73
2023-04-10T08:19:58.929Z,18.91
2023-04-10T08:20:59.008Z,19.04
2023-04-10T08:21:59.082Z,19.12
2023-04-10T08:23:09.189Z,18.52
2023-04-10T08:24:00.284Z,18.46
2023-04-10T08:24:59.449Z,18.43
2023-04-10T08:25:59.613Z,18.02
2023-04-10T08:26:59.695Z,17.84
2023-04-10T08:27:59.773Z,18.15
2023-04-10T08:28:59.893Z,18.51
2023-04-10T08:29:59.959Z,18.85
2023-04-10T08:31:00.063Z,18.61
2023-04-10T08:32:00.136Z,18.46
2023-04-10T08:33:00.279Z,18.43
2023-04-10T08:34:00.704Z,18.66
2023-04-10T08:35:00.570Z,18.96
2023-04-10T08:36:00.654Z,19.05
2023-04-10T08:37:00.722Z,18.06
2023-04-10T08:38:12.614Z,17.94
2023-04-10T08:39:01.875Z,17.68
2023-04-10T08:40:00.940Z,17.71
2023-04-10T08:41:00.988Z,17.95
2023-04-10T08:42:01.209Z,17.98
2023-04-10T08:43:01.297Z,17.68
2023-04-10T08:44:01.370Z,17.14
2023-04-10T08:45:01.461Z,16.87
2023-04-10T08:46:01.577Z,17.17
2023-04-10T08:47:01.688Z,17.59
2023-04-10T08:48:01.834Z,17.91
2023-04-10T08:49:01.907Z,18.23
2023-04-10T08:50:01.964Z,18.16
2023-04-10T08:51:02.213Z,18.51
2023-04-10T08:52:02.210Z,18.94
2023-04-10T08:53:02.279Z,19.16
2023-04-10T08:54:02.374Z,19.20
2023-04-10T08:55:02.476Z,18.97
2023-04-10T08:56:02.507Z,18.43
2023-04-10T08:57:02.631Z,18.51
2023-04-10T08:58:02.662Z,18.43
2023-04-10T08:59:02.742Z,18.36
2023-04-10T09:00:16.414Z,18.57
2023-04-10T09:01:03.958Z,18.31
2023-04-10T09:02:03.179Z,18.19
2023-04-10T09:03:03.149Z,18.27
2023-04-10T09:04:03.420Z,18.49
2023-04-10T09:05:03.207Z,18.79
2023-04-10T09:06:03.258Z,19.00
2023-04-10T09:07:03.327Z,18.96
2023-04-10T09:08:03.366Z,18.55
2023-04-10T09:09:03.440Z,18.30
2023-04-10T09:10:03.498Z,18.16
2023-04-10T09:11:03.533Z,18.23
2023-04-10T09:12:03.672Z,18.31
2023-04-10T09:13:03.736Z,18.76
2023-04-10T09:14:03.782Z,19.20
2023-04-10T09:15:03.829Z,19.62
2023-04-10T09:16:03.946Z,19.38
2023-04-10T09:17:04.007Z,19.08
2023-04-10T09:18:04.120Z,19.37
2023-04-10T09:19:06.379Z,19.59
2023-04-10T09:20:04.243Z,20.07
2023-04-10T09:21:04.267Z,19.89
2023-04-10T09:22:04.337Z,19.81
2023-04-10T09:23:04.386Z,19.79
2023-04-10T09:24:04.430Z,19.96
2023-04-10T09:25:04.464Z,19.89
2023-04-10T09:26:04.521Z,20.24
2023-04-10T09:27:04.564Z,19.78
2023-04-10T09:28:04.613Z,19.35
2023-04-10T09:29:04.661Z,19.23
2023-04-10T09:30:04.752Z,19.71
2023-04-10T09:31:04.793Z,20.07
2023-04-10T09:32:04.801Z,20.37
2023-04-10T09:33:04.959Z,20.37
2023-04-10T09:34:04.966Z,19.90
2023-04-10T09:35:04.995Z,19.89
2023-04-10T09:36:05.039Z,19.97
2023-04-10T09:37:05.075Z,19.89
2023-04-10T09:38:05.116Z,19.57
2023-04-10T09:39:05.149Z,19.48
2023-04-10T09:40:05.253Z,18.78
2023-04-10T09:41:05.246Z,18.68
2023-04-10T09:42:05.288Z,19.01
2023-04-10T09:43:05.351Z,19.15
2023-04-10T09:44:05.377Z,19.52
2023-04-10T09:45:05.383Z,19.19
2023-04-10T09:46:05.524Z,18.97
2023-04-10T09:47:05.553Z,19.16
2023-04-10T09:48:05.624Z,19.62
2023-04-10T09:49:05.625Z,20.08
2023-04-10T09:50:05.673Z,20.18
2023-04-10T09:51:05.704Z,20.19
2023-04-10T09:52:05.759Z,20.34
2023-04-10T09:53:05.815Z,19.62
2023-04-10T09:54:05.846Z,19.19
2023-04-10T09:55:05.897Z,18.97
2023-04-10T09:56:05.936Z,18.23
2023-04-10T09:57:05.987Z,18.06
2023-04-10T09:58:06.054Z,18.52
2023-04-10T09:59:06.070Z,18.61
2023-04-10T10:00:06.123Z,18.94
2023-04-10T10:01:06.159Z,19.75
2023-04-10T10:02:06.246Z,20.02
2023-04-10T10:03:06.489Z,19.57
2023-04-10T10:04:06.391Z,19.82
2023-04-10T10:05:06.459Z,20.14
2023-04-10T10:06:06.481Z,20.27
2023-04-10T10:07:06.524Z,19.70
2023-04-10T10:08:06.574Z,19.96
2023-04-10T10:09:06.623Z,20.32
2023-04-10T10:10:06.652Z,20.77
2023-04-10T10:11:06.684Z,21.13
2023-04-10T10:12:06.742Z,20.96
2023-04-10T10:13:06.803Z,20.70
2023-04-10T10:14:06.803Z,21.04
2023-04-10T10:15:06.822Z,21.10
2023-04-10T10:16:06.924Z,21.15
2023-04-10T10:17:06.936Z,20.85
2023-04-10T10:18:07.105Z,20.71
2023-04-10T10:19:06.985Z,20.24
2023-04-10T10:20:07.039Z,20.19
2023-04-10T10:21:07.055Z,20.48
2023-04-10T10:22:07.110Z,20.29
2023-04-10T10:23:07.131Z,19.97
2023-04-10T10:24:07.154Z,19.94
2023-04-10T10:25:07.183Z,20.27
2023-04-10T10:26:07.213Z,20.18
2023-04-10T10:27:07.275Z,19.84
2023-04-10T10:28:07.300Z,20.11
2023-04-10T10:29:07.329Z,20.83
2023-04-10T10:30:20.132Z,20.59
2023-04-10T10:31:08.431Z,20.22
2023-04-10T10:32:07.451Z,20.32
2023-04-10T10:33:07.455Z,21.01
2023-04-10T10:34:07.536Z,20.88
2023-04-10T10:35:07.537Z,20.92
2023-04-10T10:36:07.542Z,20.90
2023-04-10T10:37:07.567Z,20.93
2023-04-10T10:38:07.623Z,21.45
2023-04-10T10:39:07.698Z,21.41
2023-04-10T10:40:14.715Z,21.45
2023-04-10T10:41:07.751Z,21.44
2023-04-10T10:42:07.773Z,21.45
2023-04-10T10:43:07.806Z,21.63
2023-04-10T10:44:07.831Z,20.96
2023-04-10T10:45:07.836Z,20.53
2023-04-10T10:46:07.923Z,20.58
2023-04-10T10:47:07.920Z,20.59
2023-04-10T10:48:08.049Z,21.03
2023-04-10T10:49:07.963Z,21.11
2023-04-10T10:50:08.011Z,21.07
2023-04-10T10:51:08.036Z,21.48
2023-04-10T10:52:08.070Z,21.96
2023-04-10T10:53:08.090Z,22.18
2023-04-10T10:54:08.117Z,21.37
2023-04-10T10:55:08.143Z,21.01
2023-04-10T10:56:08.179Z,21.40
2023-04-10T10:57:08.200Z,21.75
2023-04-10T10:58:08.232Z,21.92
2023-04-10T10:59:08.274Z,22.37
2023-04-10T11:00:08.295Z,22.47
2023-04-10T11:01:10.306Z,22.43
2023-04-10T11:02:08.633Z,22.23
2023-04-10T11:03:08.637Z,22.91
2023-04-10T11:04:08.551Z,22.99
2023-04-10T11:05:08.535Z,21.96
2023-04-10T11:06:08.589Z,21.66
2023-04-10T11:07:08.613Z,21.48
2023-04-10T11:08:08.676Z,21.23
2023-04-10T11:09:08.667Z,20.70
2023-04-10T11:10:08.696Z,20.49
2023-04-10T11:11:08.751Z,20.78
2023-04-10T11:12:08.789Z,21.23
2023-04-10T11:13:08.817Z,21.56
2023-04-10T11:14:08.850Z,21.45
2023-04-10T11:15:09.375Z,21.40
2023-04-10T11:16:08.991Z,21.30
2023-04-10T11:17:09.080Z,20.93
2023-04-10T11:18:09.068Z,21.26
2023-04-10T11:19:14.754Z,21.59
2023-04-10T11:20:10.124Z,21.51
2023-04-10T11:21:09.148Z,21.29
2023-04-10T11:22:09.322Z,21.66
2023-04-10T11:23:09.249Z,21.78
2023-04-10T11:24:09.241Z,21.53
2023-04-10T11:25:09.264Z,21.32
2023-04-10T11:26:09.316Z,21.17
2023-04-10T11:27:09.385Z,21.62
2023-04-10T11:28:09.410Z,21.63
2023-04-10T11:29:09.470Z,21.50
2023-04-10T11:30:09.527Z,21.53
2023-04-10T11:31:09.554Z,21.72
2023-04-10T11:32:09.713Z,22.47
2023-04-10T11:33:09.661Z,23.01
2023-04-10T11:34:09.666Z,23.16
2023-04-10T11:35:09.700Z,23.13
2023-04-10T11:36:09.733Z,22.88
2023-04-10T11:37:09.773Z,22.36
2023-04-10T11:38:09.831Z,21.84
2023-04-10T11:39:09.894Z,21.91
2023-04-10T11:40:09.925Z,22.44
2023-04-10T11:41:09.960Z,21.77
2023-04-10T11:42:10.000Z,21.63
2023-04-10T11:43:10.029Z,22.03
2023-04-10T11:44:10.258Z,22.21
2023-04-10T11:45:10.162Z,22.31
2023-04-10T11:46:10.299Z,22.15
2023-04-10T11:47:10.264Z,22.49
2023-04-10T11:48:10.320Z,22.21
2023-04-10T11:49:10.347Z,21.96
2023-04-10T11:50:10.475Z,21.37
2023-04-10T11:51:10.526Z,21.29
2023-04-10T11:52:10.589Z,21.66
2023-04-10T11:53:10.610Z,21.97
2023-04-10T11:54:10.642Z,22.25
2023-04-10T11:55:10.666Z,22.03
2023-04-10T11:56:10.693Z,21.78
2023-04-10T11:57:10.755Z,21.53
2023-04-10T11:58:10.789Z,21.26
2023-04-10T11:59:11.059Z,21.11
2023-04-10T12:00:10.890Z,20.88
2023-04-10T12:01:10.931Z,20.77
2023-04-10T12:02:11.115Z,21.25
2023-04-10T12:03:11.162Z,21.89
2023-04-10T12:04:11.248Z,21.94
2023-04-10T12:05:11.268Z,22.18
2023-04-10T12:06:11.329Z,22.59
2023-04-10T12:07:11.378Z,23.07
2023-04-10T12:08:11.424Z,23.08
2023-04-10T12:09:11.478Z,22.81
2023-04-10T12:10:11.502Z,22.46
2023-04-10T12:11:11.551Z,22.15
2023-04-10T12:12:11.605Z,22.14
2023-04-10T12:13:11.636Z,21.56
2023-04-10T12:14:11.677Z,20.77
2023-04-10T12:15:11.723Z,20.70
2023-04-10T12:16:11.876Z,20.59
2023-04-10T12:17:11.888Z,20.48
2023-04-10T12:18:11.893Z,20.90
2023-04-10T12:19:11.944Z,21.45
2023-04-10T12:20:11.998Z,22.14
2023-04-10T12:21:12.026Z,22.59
2023-04-10T12:22:12.126Z,22.25
2023-04-10T12:23:12.143Z,22.19
2023-04-10T12:24:12.202Z,22.40
2023-04-10T12:25:12.268Z,22.83
2023-04-10T12:26:12.334Z,22.81
2023-04-10T12:27:12.377Z,22.58
2023-04-10T12:28:12.424Z,22.47
2023-04-10T12:29:12.469Z,22.44
2023-04-10T12:30:12.541Z,22.07
2023-04-10T12:31:12.686Z,22.06
2023-04-10T12:32:12.730Z,21.88
2023-04-10T12:33:12.765Z,21.97
2023-04-10T12:34:12.806Z,21.84
2023-04-10T12:35:12.880Z,21.56
2023-04-10T12:36:12.916Z,21.35
2023-04-10T12:37:12.953Z,21.62
2023-04-10T12:38:13.007Z,22.04
2023-04-10T12:39:13.058Z,21.43
2023-04-10T12:40:13.118Z,21.62
2023-04-10T12:41:13.162Z,21.37
2023-04-10T12:42:13.234Z,21.59
2023-04-10T12:43:13.292Z,21.85
2023-04-10T12:44:13.324Z,22.04
2023-04-10T12:45:13.388Z,22.26
2023-04-10T12:46:13.474Z,21.97
2023-04-10T12:47:13.509Z,21.60
2023-04-10T12:48:13.567Z,21.47
2023-04-10T12:49:13.619Z,21.44
2023-04-10T12:50:13.701Z,21.92
2023-04-10T12:51:13.755Z,22.21
2023-04-10T12:52:13.807Z,22.59
2023-04-10T12:53:14.166Z,22.49
2023-04-10T12:54:13.999Z,21.80
2023-04-10T12:55:14.049Z,21.53
2023-04-10T12:56:14.076Z,21.17
2023-04-10T12:57:14.150Z,21.23
2023-04-10T12:58:14.192Z,20.88
2023-04-10T12:59:14.229Z,20.67
2023-04-10T13:00:14.272Z,20.86
2023-04-10T13:01:14.383Z,21.00
2023-04-10T13:02:14.576Z,21.29
2023-04-10T13:03:14.657Z,21.78
2023-04-10T13:04:14.778Z,21.70
2023-04-10T13:05:14.768Z,21.66
2023-04-10T13:06:14.806Z,22.15